sensor_id;sensor_type;location;lat;lon;timestamp;pressure;altitude;pressure_sealevel;temperature;humidity
26376;BME280;30544;42.196;24.336;2023-07-02T00:01:50;98319.81;;;24.55;65.94
26376;BME280;30544;42.196;24.336;2023-07-02T00:04:16;98320.53;;;24.52;66.21
26376;BME280;30544;42.196;24.336;2023-07-02T00:06:45;98326.94;;;24.65;65.97
26376;BME280;30544;42.196;24.336;2023-07-02T00:09:12;98328.66;;;24.54;66.32
26376;BME280;30544;42.196;24.336;2023-07-02T00:11:41;98331.97;;;24.56;66.53
26376;BME280;30544;42.196;24.336;2023-07-02T00:14:09;98329.50;;;24.54;66.84
26376;BME280;30544;42.196;24.336;2023-07-02T00:16:41;98320.09;;;24.66;66.61
26376;BME280;30544;42.196;24.336;2023-07-02T00:19:07;98327.16;;;24.72;66.31
26376;BME280;30544;42.196;24.336;2023-07-02T00:21:34;98331.75;;;24.49;66.90
26376;BME280;30544;42.196;24.336;2023-07-02T00:24:03;98329.31;;;24.63;66.75
26376;BME280;30544;42.196;24.336;2023-07-02T00:26:29;98332.63;;;24.65;66.58
26376;BME280;30544;42.196;24.336;2023-07-02T00:28:56;98336.53;;;24.60;66.75
26376;BME280;30544;42.196;24.336;2023-07-02T00:31:25;98336.44;;;24.57;66.77
26376;BME280;30544;42.196;24.336;2023-07-02T00:33:51;98337.63;;;24.56;66.84
26376;BME280;30544;42.196;24.336;2023-07-02T00:36:18;98336.50;;;24.73;66.38
26376;BME280;30544;42.196;24.336;2023-07-02T00:38:46;98331.97;;;24.56;67.03
26376;BME280;30544;42.196;24.336;2023-07-02T00:41:13;98328.66;;;24.54;66.99
26376;BME280;30544;42.196;24.336;2023-07-02T00:43:40;98328.09;;;24.48;67.16
26376;BME280;30544;42.196;24.336;2023-07-02T00:46:10;98317.34;;;24.54;66.54
26376;BME280;30544;42.196;24.336;2023-07-02T00:48:40;98312.91;;;24.41;66.45
26376;BME280;30544;42.196;24.336;2023-07-02T00:51:07;98312.00;;;24.37;66.50
26376;BME280;30544;42.196;24.336;2023-07-02T00:53:35;98315.56;;;24.21;66.35
26376;BME280;30544;42.196;24.336;2023-07-02T00:56:01;98307.75;;;24.30;66.52
26376;BME280;30544;42.196;24.336;2023-07-02T00:58:28;98309.75;;;24.30;66.19
26376;BME280;30544;42.196;24.336;2023-07-02T01:00:55;98308.09;;;24.29;65.83
26376;BME280;30544;42.196;24.336;2023-07-02T01:03:22;98300.66;;;24.24;66.09
26376;BME280;30544;42.196;24.336;2023-07-02T01:05:50;98309.16;;;24.24;65.55
26376;BME280;30544;42.196;24.336;2023-07-02T01:08:17;98302.31;;;24.25;65.52
26376;BME280;30544;42.196;24.336;2023-07-02T01:10:44;98302.06;;;24.30;65.46
26376;BME280;30544;42.196;24.336;2023-07-02T01:13:14;98298.75;;;24.28;65.39
26376;BME280;30544;42.196;24.336;2023-07-02T01:15:42;98298.94;;;24.08;65.99
26376;BME280;30544;42.196;24.336;2023-07-02T01:18:12;98304.63;;;23.95;66.05
26376;BME280;30544;42.196;24.336;2023-07-02T01:20:41;98282.25;;;24.18;65.62
26376;BME280;30544;42.196;24.336;2023-07-02T01:23:09;98284.09;;;23.98;65.67
26376;BME280;30544;42.196;24.336;2023-07-02T01:25:36;98278.28;;;24.19;64.93
26376;BME280;30544;42.196;24.336;2023-07-02T01:28:03;98273.94;;;24.10;65.22
26376;BME280;30544;42.196;24.336;2023-07-02T01:30:29;98279.78;;;24.17;64.78
26376;BME280;30544;42.196;24.336;2023-07-02T01:32:56;98281.09;;;24.19;64.76
26376;BME280;30544;42.196;24.336;2023-07-02T01:35:23;98286.28;;;24.29;64.03
26376;BME280;30544;42.196;24.336;2023-07-02T01:37:51;98282.06;;;24.11;64.66
26376;BME280;30544;42.196;24.336;2023-07-02T01:40:18;98283.94;;;24.19;64.33
26376;BME280;30544;42.196;24.336;2023-07-02T01:42:45;98291.53;;;24.03;64.90
26376;BME280;30544;42.196;24.336;2023-07-02T01:45:12;98282.09;;;23.99;65.21
26376;BME280;30544;42.196;24.336;2023-07-02T01:47:39;98278.81;;;23.97;65.01
26376;BME280;30544;42.196;24.336;2023-07-02T01:50:06;98279.53;;;23.94;65.05
26376;BME280;30544;42.196;24.336;2023-07-02T01:52:33;98274.97;;;23.77;66.04
26376;BME280;30544;42.196;24.336;2023-07-02T01:55:02;98279.06;;;23.92;65.50
26376;BME280;30544;42.196;24.336;2023-07-02T01:57:30;98276.59;;;23.90;65.75
26376;BME280;30544;42.196;24.336;2023-07-02T01:59:57;98281.78;;;23.88;65.82
26376;BME280;30544;42.196;24.336;2023-07-02T02:02:24;98274.22;;;23.92;66.03
26376;BME280;30544;42.196;24.336;2023-07-02T02:04:51;98281.44;;;23.90;65.87
26376;BME280;30544;42.196;24.336;2023-07-02T02:07:17;98275.66;;;23.86;66.01
26376;BME280;30544;42.196;24.336;2023-07-02T02:09:44;98278.50;;;23.86;65.92
26376;BME280;30544;42.196;24.336;2023-07-02T02:12:13;98295.25;;;23.79;66.06
26376;BME280;30544;42.196;24.336;2023-07-02T02:14:40;98290.50;;;23.95;66.11
26376;BME280;30544;42.196;24.336;2023-07-02T02:17:07;98285.44;;;23.89;66.87
26376;BME280;30544;42.196;24.336;2023-07-02T02:19:34;98280.69;;;24.05;66.09
26376;BME280;30544;42.196;24.336;2023-07-02T02:22:01;98292.72;;;24.02;66.29
26376;BME280;30544;42.196;24.336;2023-07-02T02:24:28;98295.69;;;23.93;66.85
26376;BME280;30544;42.196;24.336;2023-07-02T02:26:55;98308.28;;;23.96;66.77
26376;BME280;30544;42.196;24.336;2023-07-02T02:29:23;98302.25;;;24.10;66.61
26376;BME280;30544;42.196;24.336;2023-07-02T02:31:49;98312.31;;;23.95;66.75
26376;BME280;30544;42.196;24.336;2023-07-02T02:34:16;98310.56;;;23.90;67.78
26376;BME280;30544;42.196;24.336;2023-07-02T02:36:43;98314.47;;;23.86;67.81
26376;BME280;30544;42.196;24.336;2023-07-02T02:39:10;98327.19;;;23.80;67.44
26376;BME280;30544;42.196;24.336;2023-07-02T02:41:36;98328.63;;;23.74;67.05
26376;BME280;30544;42.196;24.336;2023-07-02T02:44:03;98324.84;;;23.82;66.80
26376;BME280;30544;42.196;24.336;2023-07-02T02:46:32;98323.28;;;23.84;66.61
26376;BME280;30544;42.196;24.336;2023-07-02T02:48:58;98335.69;;;23.92;66.30
26376;BME280;30544;42.196;24.336;2023-07-02T02:51:25;98338.88;;;23.78;66.74
26376;BME280;30544;42.196;24.336;2023-07-02T02:53:52;98340.69;;;23.70;66.67
26376;BME280;30544;42.196;24.336;2023-07-02T02:56:18;98344.44;;;23.62;67.02
26376;BME280;30544;42.196;24.336;2023-07-02T02:58:45;98354.00;;;23.70;66.51
26376;BME280;30544;42.196;24.336;2023-07-02T03:01:12;98352.56;;;23.64;66.92
26376;BME280;30544;42.196;24.336;2023-07-02T03:03:41;98346.56;;;23.65;66.42
26376;BME280;30544;42.196;24.336;2023-07-02T03:06:10;98347.16;;;23.59;66.36
26376;BME280;30544;42.196;24.336;2023-07-02T03:08:38;98357.28;;;23.60;65.63
26376;BME280;30544;42.196;24.336;2023-07-02T03:11:05;98350.47;;;23.73;65.54
26376;BME280;30544;42.196;24.336;2023-07-02T03:13:32;98348.44;;;23.74;65.55
26376;BME280;30544;42.196;24.336;2023-07-02T03:15:58;98346.56;;;23.78;65.47
26376;BME280;30544;42.196;24.336;2023-07-02T03:18:25;98346.75;;;23.85;64.92
26376;BME280;30544;42.196;24.336;2023-07-02T03:20:53;98335.22;;;23.78;64.91
26376;BME280;30544;42.196;24.336;2023-07-02T03:23:20;98335.84;;;23.71;65.36
26376;BME280;30544;42.196;24.336;2023-07-02T03:25:47;98328.84;;;23.81;65.42
26376;BME280;30544;42.196;24.336;2023-07-02T03:28:14;98324.84;;;23.82;65.04
26376;BME280;30544;42.196;24.336;2023-07-02T03:30:40;98325.00;;;23.61;65.98
26376;BME280;30544;42.196;24.336;2023-07-02T03:33:08;98335.94;;;23.75;66.46
26376;BME280;30544;42.196;24.336;2023-07-02T03:35:35;98340.97;;;23.93;66.63
26376;BME280;30544;42.196;24.336;2023-07-02T03:38:03;98347.00;;;23.80;66.68
26376;BME280;30544;42.196;24.336;2023-07-02T03:40:31;98348.56;;;23.89;66.99
26376;BME280;30544;42.196;24.336;2023-07-02T03:42:58;98348.31;;;23.82;67.95
26376;BME280;30544;42.196;24.336;2023-07-02T03:45:24;98357.63;;;23.95;66.95
26376;BME280;30544;42.196;24.336;2023-07-02T03:47:51;98370.00;;;24.03;66.91
26376;BME280;30544;42.196;24.336;2023-07-02T03:50:18;98372.00;;;24.02;67.18
26376;BME280;30544;42.196;24.336;2023-07-02T03:52:45;98369.03;;;23.98;66.86
26376;BME280;30544;42.196;24.336;2023-07-02T03:55:14;98353.00;;;24.03;66.75
26376;BME280;30544;42.196;24.336;2023-07-02T03:57:43;98354.25;;;24.17;66.30
26376;BME280;30544;42.196;24.336;2023-07-02T04:00:10;98352.84;;;24.11;65.82
26376;BME280;30544;42.196;24.336;2023-07-02T04:02:37;98347.00;;;24.04;66.18
26376;BME280;30544;42.196;24.336;2023-07-02T04:05:05;98353.22;;;24.10;67.14
26376;BME280;30544;42.196;24.336;2023-07-02T04:07:32;98352.84;;;24.11;67.97
26376;BME280;30544;42.196;24.336;2023-07-02T04:09:59;98355.19;;;24.21;68.06
26376;BME280;30544;42.196;24.336;2023-07-02T04:12:27;98358.13;;;24.25;67.43
26376;BME280;30544;42.196;24.336;2023-07-02T04:14:54;98362.75;;;24.17;66.98
26376;BME280;30544;42.196;24.336;2023-07-02T04:17:20;98365.22;;;24.31;67.23
26376;BME280;30544;42.196;24.336;2023-07-02T04:19:47;98362.00;;;24.45;67.57
26376;BME280;30544;42.196;24.336;2023-07-02T04:22:14;98368.84;;;24.44;66.73
26376;BME280;30544;42.196;24.336;2023-07-02T04:24:41;98382.19;;;24.43;66.78
26376;BME280;30544;42.196;24.336;2023-07-02T04:27:08;98385.19;;;24.63;66.08
26376;BME280;30544;42.196;24.336;2023-07-02T04:29:36;98382.66;;;24.73;65.40
26376;BME280;30544;42.196;24.336;2023-07-02T04:32:03;98385.75;;;24.68;65.75
26376;BME280;30544;42.196;24.336;2023-07-02T04:34:30;98381.84;;;24.73;64.49
26376;BME280;30544;42.196;24.336;2023-07-02T04:36:56;98387.19;;;24.62;64.39
26376;BME280;30544;42.196;24.336;2023-07-02T04:39:23;98389.06;;;24.70;65.03
26376;BME280;30544;42.196;24.336;2023-07-02T04:41:50;98390.72;;;24.71;66.92
26376;BME280;30544;42.196;24.336;2023-07-02T04:44:18;98387.16;;;24.74;67.34
26376;BME280;30544;42.196;24.336;2023-07-02T04:46:49;98387.16;;;24.74;66.80
26376;BME280;30544;42.196;24.336;2023-07-02T04:49:16;98399.91;;;24.96;67.97
26376;BME280;30544;42.196;24.336;2023-07-02T04:51:43;98398.91;;;24.88;68.91
26376;BME280;30544;42.196;24.336;2023-07-02T04:54:09;98392.50;;;24.92;68.72
26376;BME280;30544;42.196;24.336;2023-07-02T04:56:36;98394.00;;;25.01;69.13
26376;BME280;30544;42.196;24.336;2023-07-02T04:59:03;98401.81;;;24.92;68.12
26376;BME280;30544;42.196;24.336;2023-07-02T05:01:30;98415.25;;;25.07;67.81
26376;BME280;30544;42.196;24.336;2023-07-02T05:03:58;98414.97;;;25.12;71.94
26376;BME280;30544;42.196;24.336;2023-07-02T05:06:24;98429.34;;;24.92;71.20
26376;BME280;30544;42.196;24.336;2023-07-02T05:08:51;98452.88;;;24.92;73.87
26376;BME280;30544;42.196;24.336;2023-07-02T05:11:18;98449.34;;;24.83;74.22
26376;BME280;30544;42.196;24.336;2023-07-02T05:13:45;98445.94;;;24.77;73.42
26376;BME280;30544;42.196;24.336;2023-07-02T05:16:11;98435.94;;;24.68;73.27
26376;BME280;30544;42.196;24.336;2023-07-02T05:18:38;98428.38;;;24.72;73.72
26376;BME280;30544;42.196;24.336;2023-07-02T05:21:07;98424.97;;;24.66;73.70
26376;BME280;30544;42.196;24.336;2023-07-02T05:23:33;98413.56;;;24.50;73.67
26376;BME280;30544;42.196;24.336;2023-07-02T05:26:01;98413.44;;;24.59;73.86
26376;BME280;30544;42.196;24.336;2023-07-02T05:28:28;98415.06;;;24.60;73.89
26376;BME280;30544;42.196;24.336;2023-07-02T05:30:55;98414.75;;;24.77;74.03
26376;BME280;30544;42.196;24.336;2023-07-02T05:33:21;98415.44;;;24.86;74.85
26376;BME280;30544;42.196;24.336;2023-07-02T05:35:48;98421.03;;;24.99;75.01
26376;BME280;30544;42.196;24.336;2023-07-02T05:38:17;98423.69;;;24.92;74.03
26376;BME280;30544;42.196;24.336;2023-07-02T05:40:44;98434.75;;;25.09;72.73
26376;BME280;30544;42.196;24.336;2023-07-02T05:43:11;98426.22;;;25.09;73.80
26376;BME280;30544;42.196;24.336;2023-07-02T05:45:38;98440.59;;;25.16;74.45
26376;BME280;30544;42.196;24.336;2023-07-02T05:48:05;98434.69;;;25.21;73.38
26376;BME280;30544;42.196;24.336;2023-07-02T05:50:32;98442.91;;;25.26;74.00
26376;BME280;30544;42.196;24.336;2023-07-02T05:52:59;98438.97;;;25.31;71.88
26376;BME280;30544;42.196;24.336;2023-07-02T05:55:27;98442.09;;;25.26;72.11
26376;BME280;30544;42.196;24.336;2023-07-02T05:57:54;98443.44;;;25.16;72.18
26376;BME280;30544;42.196;24.336;2023-07-02T06:00:23;98432.81;;;25.13;72.52
26376;BME280;30544;42.196;24.336;2023-07-02T06:02:49;98431.13;;;25.24;70.58
26376;BME280;30544;42.196;24.336;2023-07-02T06:05:16;98435.41;;;25.34;71.58
26376;BME280;30544;42.196;24.336;2023-07-02T06:07:43;98435.97;;;25.24;71.91
26376;BME280;30544;42.196;24.336;2023-07-02T06:10:10;98421.19;;;25.18;71.42
26376;BME280;30544;42.196;24.336;2023-07-02T06:12:38;98430.19;;;25.36;70.45
26376;BME280;30544;42.196;24.336;2023-07-02T06:15:05;98433.31;;;25.46;68.75
26376;BME280;30544;42.196;24.336;2023-07-02T06:17:32;98427.56;;;25.59;67.67
26376;BME280;30544;42.196;24.336;2023-07-02T06:19:59;98414.09;;;25.40;68.52
26376;BME280;30544;42.196;24.336;2023-07-02T06:22:26;98414.56;;;25.42;67.00
26376;BME280;30544;42.196;24.336;2023-07-02T06:24:52;98416.88;;;25.68;68.75
26376;BME280;30544;42.196;24.336;2023-07-02T06:27:19;98423.66;;;25.79;69.68
26376;BME280;30544;42.196;24.336;2023-07-02T06:29:47;98427.84;;;25.85;67.82
26376;BME280;30544;42.196;24.336;2023-07-02T06:32:15;98415.00;;;26.07;66.47
26376;BME280;30544;42.196;24.336;2023-07-02T06:34:41;98405.56;;;26.03;66.69
26376;BME280;30544;42.196;24.336;2023-07-02T06:37:08;98404.50;;;26.27;67.62
26376;BME280;30544;42.196;24.336;2023-07-02T06:39:35;98413.34;;;26.57;67.85
26376;BME280;30544;42.196;24.336;2023-07-02T06:42:02;98411.31;;;26.57;63.97
26376;BME280;30544;42.196;24.336;2023-07-02T06:44:29;98408.09;;;26.78;65.54
26376;BME280;30544;42.196;24.336;2023-07-02T06:46:57;98418.06;;;26.88;63.87
26376;BME280;30544;42.196;24.336;2023-07-02T06:49:24;98404.84;;;26.99;62.21
26376;BME280;30544;42.196;24.336;2023-07-02T06:51:50;98409.22;;;27.12;63.19
26376;BME280;30544;42.196;24.336;2023-07-02T06:54:17;98408.25;;;27.24;63.59
26376;BME280;30544;42.196;24.336;2023-07-02T06:56:44;98407.59;;;27.34;62.86
26376;BME280;30544;42.196;24.336;2023-07-02T06:59:10;98408.63;;;27.45;61.08
26376;BME280;30544;42.196;24.336;2023-07-02T07:01:37;98405.91;;;27.52;60.21
26376;BME280;30544;42.196;24.336;2023-07-02T07:04:05;98416.84;;;27.50;60.94
26376;BME280;30544;42.196;24.336;2023-07-02T07:06:32;98420.84;;;27.69;60.13
26376;BME280;30544;42.196;24.336;2023-07-02T07:08:59;98410.72;;;27.71;59.89
26376;BME280;30544;42.196;24.336;2023-07-02T07:11:26;98405.28;;;27.63;58.25
26376;BME280;30544;42.196;24.336;2023-07-02T07:13:52;98404.72;;;27.76;58.13
26376;BME280;30544;42.196;24.336;2023-07-02T07:16:19;98403.53;;;27.77;56.38
26376;BME280;30544;42.196;24.336;2023-07-02T07:18:46;98401.78;;;27.96;55.81
26376;BME280;30544;42.196;24.336;2023-07-02T07:21:14;98391.38;;;28.07;56.83
26376;BME280;30544;42.196;24.336;2023-07-02T07:23:41;98392.75;;;28.16;55.60
26376;BME280;30544;42.196;24.336;2023-07-02T07:26:07;98396.56;;;28.01;57.35
26376;BME280;30544;42.196;24.336;2023-07-02T07:28:34;98390.41;;;28.22;56.64
26376;BME280;30544;42.196;24.336;2023-07-02T07:31:01;98390.28;;;28.41;56.37
26376;BME280;30544;42.196;24.336;2023-07-02T07:33:27;98383.56;;;28.57;56.92
26376;BME280;30544;42.196;24.336;2023-07-02T07:35:54;98395.06;;;28.64;56.44
26376;BME280;30544;42.196;24.336;2023-07-02T07:38:22;98396.94;;;28.83;54.68
26376;BME280;30544;42.196;24.336;2023-07-02T07:40:49;98407.38;;;29.01;54.73
26376;BME280;30544;42.196;24.336;2023-07-02T07:43:16;98396.34;;;29.00;53.33
26376;BME280;30544;42.196;24.336;2023-07-02T07:45:43;98391.97;;;29.06;53.00
26376;BME280;30544;42.196;24.336;2023-07-02T07:48:09;98404.78;;;29.23;53.63
26376;BME280;30544;42.196;24.336;2023-07-02T07:50:36;98402.06;;;29.37;51.29
26376;BME280;30544;42.196;24.336;2023-07-02T07:53:03;98398.56;;;29.51;52.95
26376;BME280;30544;42.196;24.336;2023-07-02T07:55:31;98401.91;;;29.56;50.61
26376;BME280;30544;42.196;24.336;2023-07-02T07:57:58;98393.41;;;29.67;49.45
26376;BME280;30544;42.196;24.336;2023-07-02T08:00:25;98396.00;;;29.83;50.81
26376;BME280;30544;42.196;24.336;2023-07-02T08:02:52;98391.22;;;29.98;51.68
26376;BME280;30544;42.196;24.336;2023-07-02T08:05:21;98399.03;;;30.04;51.21
26376;BME280;30544;42.196;24.336;2023-07-02T08:07:48;98397.09;;;30.19;49.21
26376;BME280;30544;42.196;24.336;2023-07-02T08:10:15;98394.66;;;30.17;49.25
26376;BME280;30544;42.196;24.336;2023-07-02T08:12:43;98400.44;;;30.24;50.79
26376;BME280;30544;42.196;24.336;2023-07-02T08:15:11;98391.84;;;30.24;50.60
26376;BME280;30544;42.196;24.336;2023-07-02T08:17:37;98399.25;;;30.36;50.53
26376;BME280;30544;42.196;24.336;2023-07-02T08:20:05;98398.09;;;30.41;50.03
26376;BME280;30544;42.196;24.336;2023-07-02T08:22:34;98400.94;;;30.41;48.05
26376;BME280;30544;42.196;24.336;2023-07-02T08:25:04;98395.47;;;30.18;48.38
26376;BME280;30544;42.196;24.336;2023-07-02T08:27:30;98394.31;;;30.26;48.85
26376;BME280;30544;42.196;24.336;2023-07-02T08:29:59;98389.34;;;30.19;49.03
26376;BME280;30544;42.196;24.336;2023-07-02T08:32:25;98392.63;;;30.21;50.05
26376;BME280;30544;42.196;24.336;2023-07-02T08:34:52;98403.22;;;30.17;50.45
26376;BME280;30544;42.196;24.336;2023-07-02T08:37:20;98406.88;;;30.14;48.38
26376;BME280;30544;42.196;24.336;2023-07-02T08:39:48;98395.03;;;30.12;48.89
26376;BME280;30544;42.196;24.336;2023-07-02T08:42:15;98412.19;;;30.12;50.72
26376;BME280;30544;42.196;24.336;2023-07-02T08:44:45;98395.84;;;30.09;50.79
26376;BME280;30544;42.196;24.336;2023-07-02T08:47:14;98401.50;;;30.06;50.50
26376;BME280;30544;42.196;24.336;2023-07-02T08:49:41;98398.13;;;29.93;51.71
26376;BME280;30544;42.196;24.336;2023-07-02T08:52:08;98397.16;;;29.75;47.85
26376;BME280;30544;42.196;24.336;2023-07-02T08:54:35;98392.72;;;29.81;49.73
26376;BME280;30544;42.196;24.336;2023-07-02T08:57:03;98393.97;;;29.87;46.79
26376;BME280;30544;42.196;24.336;2023-07-02T08:59:30;98394.66;;;29.70;47.71
26376;BME280;30544;42.196;24.336;2023-07-02T09:01:57;98393.56;;;29.85;47.38
26376;BME280;30544;42.196;24.336;2023-07-02T09:04:25;98393.94;;;29.80;48.03
26376;BME280;30544;42.196;24.336;2023-07-02T09:07:03;98390.00;;;29.99;47.81
26376;BME280;30544;42.196;24.336;2023-07-02T09:09:31;98395.88;;;30.16;48.92
26376;BME280;30544;42.196;24.336;2023-07-02T09:11:58;98409.88;;;30.36;49.21
26376;BME280;30544;42.196;24.336;2023-07-02T09:14:29;98396.88;;;30.45;48.03
26376;BME280;30544;42.196;24.336;2023-07-02T09:17:06;98397.41;;;30.62;47.91
26376;BME280;30544;42.196;24.336;2023-07-02T09:19:36;98395.78;;;30.68;47.03
26376;BME280;30544;42.196;24.336;2023-07-02T09:22:03;98395.44;;;30.76;47.68
26376;BME280;30544;42.196;24.336;2023-07-02T09:24:31;98385.56;;;30.63;47.04
26376;BME280;30544;42.196;24.336;2023-07-02T09:27:00;98387.50;;;30.52;47.39
26376;BME280;30544;42.196;24.336;2023-07-02T09:29:28;98381.41;;;30.57;47.39
26376;BME280;30544;42.196;24.336;2023-07-02T09:31:57;98378.06;;;30.41;47.97
26376;BME280;30544;42.196;24.336;2023-07-02T09:34:28;98382.97;;;30.44;48.03
26376;BME280;30544;42.196;24.336;2023-07-02T09:36:56;98386.19;;;30.35;47.84
26376;BME280;30544;42.196;24.336;2023-07-02T09:39:27;98395.94;;;30.23;48.42
26376;BME280;30544;42.196;24.336;2023-07-02T09:41:55;98393.84;;;30.20;47.70
26376;BME280;30544;42.196;24.336;2023-07-02T09:44:25;98398.81;;;30.27;49.27
26376;BME280;30544;42.196;24.336;2023-07-02T09:46:58;98391.91;;;30.39;48.54
26376;BME280;30544;42.196;24.336;2023-07-02T09:49:25;98387.06;;;30.43;47.07
26376;BME280;30544;42.196;24.336;2023-07-02T09:51:53;98387.59;;;30.66;47.02
26376;BME280;30544;42.196;24.336;2023-07-02T09:54:21;98382.78;;;30.84;46.67
26376;BME280;30544;42.196;24.336;2023-07-02T09:56:48;98379.94;;;30.88;45.12
26376;BME280;30544;42.196;24.336;2023-07-02T09:59:15;98384.06;;;31.05;45.59
26376;BME280;30544;42.196;24.336;2023-07-02T10:01:42;98385.75;;;31.09;45.23
26376;BME280;30544;42.196;24.336;2023-07-02T10:04:12;98384.16;;;31.23;44.72
26376;BME280;30544;42.196;24.336;2023-07-02T10:06:47;98382.53;;;31.39;44.39
26376;BME280;30544;42.196;24.336;2023-07-02T10:09:14;98382.16;;;31.48;44.41
26376;BME280;30544;42.196;24.336;2023-07-02T10:11:42;98380.13;;;31.49;43.96
26376;BME280;30544;42.196;24.336;2023-07-02T10:14:09;98372.34;;;31.70;43.86
26376;BME280;30544;42.196;24.336;2023-07-02T10:16:48;98374.44;;;31.77;43.10
26376;BME280;30544;42.196;24.336;2023-07-02T10:19:16;98376.06;;;31.75;43.86
26376;BME280;30544;42.196;24.336;2023-07-02T10:21:43;98375.25;;;31.85;42.80
26376;BME280;30544;42.196;24.336;2023-07-02T10:24:12;98364.56;;;32.07;42.60
26376;BME280;30544;42.196;24.336;2023-07-02T10:26:52;98370.75;;;32.09;41.70
26376;BME280;30544;42.196;24.336;2023-07-02T10:29:19;98358.06;;;31.99;42.46
26376;BME280;30544;42.196;24.336;2023-07-02T10:31:50;98357.66;;;31.93;41.67
26376;BME280;30544;42.196;24.336;2023-07-02T10:34:28;98358.88;;;31.99;39.39
26376;BME280;30544;42.196;24.336;2023-07-02T10:36:55;98355.16;;;32.06;38.92
26376;BME280;30544;42.196;24.336;2023-07-02T10:39:22;98353.13;;;32.03;39.52
26376;BME280;30544;42.196;24.336;2023-07-02T10:41:49;98342.88;;;32.16;38.90
26376;BME280;30544;42.196;24.336;2023-07-02T10:44:17;98355.56;;;32.05;39.38
26376;BME280;30544;42.196;24.336;2023-07-02T10:46:44;98340.81;;;32.17;40.37
26376;BME280;30544;42.196;24.336;2023-07-02T10:49:11;98340.78;;;32.24;40.20
26376;BME280;30544;42.196;24.336;2023-07-02T10:51:38;98343.22;;;32.47;40.58
26376;BME280;30544;42.196;24.336;2023-07-02T10:54:05;98332.53;;;32.54;39.77
26376;BME280;30544;42.196;24.336;2023-07-02T10:56:32;98332.53;;;32.54;39.09
26376;BME280;30544;42.196;24.336;2023-07-02T10:58:59;98332.53;;;32.61;39.73
26376;BME280;30544;42.196;24.336;2023-07-02T11:01:28;98321.88;;;32.62;40.08
26376;BME280;30544;42.196;24.336;2023-07-02T11:03:56;98328.06;;;32.50;38.58
26376;BME280;30544;42.196;24.336;2023-07-02T11:06:24;98329.75;;;32.33;39.17
26376;BME280;30544;42.196;24.336;2023-07-02T11:08:50;98318.28;;;32.26;38.84
26376;BME280;30544;42.196;24.336;2023-07-02T11:11:17;98329.78;;;32.05;41.02
26376;BME280;30544;42.196;24.336;2023-07-02T11:13:44;98325.31;;;31.96;40.96
26376;BME280;30544;42.196;24.336;2023-07-02T11:16:20;98321.19;;;31.97;39.58
26376;BME280;30544;42.196;24.336;2023-07-02T11:18:51;98318.34;;;31.97;40.20
26376;BME280;30544;42.196;24.336;2023-07-02T11:21:18;98330.63;;;32.09;39.55
26376;BME280;30544;42.196;24.336;2023-07-02T11:23:45;98326.91;;;32.12;39.76
26376;BME280;30544;42.196;24.336;2023-07-02T11:26:12;98321.13;;;32.22;39.24
26376;BME280;30544;42.196;24.336;2023-07-02T11:28:48;98314.59;;;32.33;40.01
26376;BME280;30544;42.196;24.336;2023-07-02T11:31:24;98316.19;;;32.44;40.04
26376;BME280;30544;42.196;24.336;2023-07-02T11:33:52;98312.91;;;32.46;40.92
26376;BME280;30544;42.196;24.336;2023-07-02T11:36:20;98306.34;;;32.45;39.99
26376;BME280;30544;42.196;24.336;2023-07-02T11:38:49;98308.78;;;32.54;39.52
26376;BME280;30544;42.196;24.336;2023-07-02T11:41:17;98304.34;;;32.31;39.55
26376;BME280;30544;42.196;24.336;2023-07-02T11:43:44;98308.03;;;32.36;39.72
26376;BME280;30544;42.196;24.336;2023-07-02T11:46:10;98312.53;;;32.33;41.19
26376;BME280;30544;42.196;24.336;2023-07-02T11:48:37;98308.03;;;32.32;39.08
26376;BME280;30544;42.196;24.336;2023-07-02T11:51:05;98305.53;;;32.41;40.09
26376;BME280;30544;42.196;24.336;2023-07-02T11:53:32;98314.16;;;32.38;39.17
26376;BME280;30544;42.196;24.336;2023-07-02T11:55:59;98298.22;;;32.19;40.06
26376;BME280;30544;42.196;24.336;2023-07-02T11:58:25;98288.31;;;32.41;40.47
26376;BME280;30544;42.196;24.336;2023-07-02T12:00:52;98293.22;;;32.51;41.47
26376;BME280;30544;42.196;24.336;2023-07-02T12:03:19;98289.13;;;32.42;40.58
26376;BME280;30544;42.196;24.336;2023-07-02T12:05:46;98291.19;;;32.48;41.06
26376;BME280;30544;42.196;24.336;2023-07-02T12:08:15;98292.47;;;32.33;39.89
26376;BME280;30544;42.196;24.336;2023-07-02T12:10:41;98286.69;;;32.44;39.60
26376;BME280;30544;42.196;24.336;2023-07-02T12:13:08;98289.16;;;32.45;39.30
26376;BME280;30544;42.196;24.336;2023-07-02T12:15:35;98295.69;;;32.49;39.69
26376;BME280;30544;42.196;24.336;2023-07-02T12:18:02;98286.28;;;32.45;40.41
26376;BME280;30544;42.196;24.336;2023-07-02T12:20:28;98277.25;;;32.47;41.91
26376;BME280;30544;42.196;24.336;2023-07-02T12:22:56;98275.66;;;32.42;41.79
26376;BME280;30544;42.196;24.336;2023-07-02T12:25:24;98274.81;;;32.42;41.25
26376;BME280;30544;42.196;24.336;2023-07-02T12:27:51;98284.59;;;32.51;43.12
26376;BME280;30544;42.196;24.336;2023-07-02T12:30:18;98282.94;;;32.57;43.44
26376;BME280;30544;42.196;24.336;2023-07-02T12:32:45;98278.44;;;32.60;43.29
26376;BME280;30544;42.196;24.336;2023-07-02T12:35:12;98270.66;;;32.53;41.56
26376;BME280;30544;42.196;24.336;2023-07-02T12:37:45;98276.38;;;32.60;42.01
26376;BME280;30544;42.196;24.336;2023-07-02T12:40:12;98273.50;;;32.60;41.72
26376;BME280;30544;42.196;24.336;2023-07-02T12:42:41;98266.88;;;32.71;41.06
26376;BME280;30544;42.196;24.336;2023-07-02T12:45:09;98262.06;;;32.53;41.73
26376;BME280;30544;42.196;24.336;2023-07-02T12:47:37;98265.38;;;32.48;40.64
26376;BME280;30544;42.196;24.336;2023-07-02T12:50:05;98270.25;;;32.51;41.10
26376;BME280;30544;42.196;24.336;2023-07-02T12:52:32;98268.09;;;32.73;42.19